Time;durP1;ratioP1;P1;durP2;ratioP2;P2;SDS_P1;SDS_P2;PMS_P1;PMS_P2;Temp;Humidity;BMP_temperature;BMP_pressure;BME280_temperature;BME280_humidity;BME280_pressure;Samples;Min_cycle;Max_cycle;Signal;HPM_P1;HPM_P2
2023/09/22 00:10:54;;;;;;;11.82;6.50;;;;;;;22.95;67.63;100568.44;31490434;28;20078;-82
2023/09/22 00:25:56;;;;;;;10.63;6.78;;;;;;;22.79;67.98;100578.13;31516181;28;20048;-82
2023/09/22 00:40:58;;;;;;;10.93;6.95;;;;;;;22.58;70.16;100585.72;31523285;28;20048;-82
2023/09/22 00:56:02;;;;;;;10.25;7.30;;;;;;;22.34;71.50;100588.00;31522518;28;20052;-82
2023/09/22 01:11:04;;;;;;;13.47;8.53;;;;;;;22.29;72.85;100585.94;31523858;28;20040;-82
2023/09/22 01:26:06;;;;;;;13.70;9.00;;;;;;;22.10;73.45;100594.56;31526707;28;20040;-82
2023/09/22 01:41:08;;;;;;;12.45;9.02;;;;;;;21.78;76.32;100592.88;31531466;28;20068;-82
2023/09/22 01:56:10;;;;;;;13.98;9.13;;;;;;;21.71;79.53;100582.25;31509678;28;20066;-82
2023/09/22 02:11:12;;;;;;;11.63;8.40;;;;;;;21.58;83.56;100601.94;31518293;28;20048;-84
2023/09/22 02:26:14;;;;;;;12.93;7.78;;;;;;;21.44;83.20;100598.00;31550126;28;20044;-87
2023/09/22 02:41:49;;;;;;;13.82;7.88;;;;;;;21.33;83.88;100611.63;31570841;28;20056;-86
2023/09/22 02:56:52;;;;;;;21.03;8.53;;;;;;;21.02;87.20;100606.59;31564429;28;20063;-86
2023/09/22 03:11:54;;;;;;;15.43;8.27;;;;;;;20.92;89.74;100613.47;31557412;28;20448;-86
2023/09/22 03:26:56;;;;;;;13.52;7.85;;;;;;;21.01;88.97;100615.38;31590268;28;20103;-87
2023/09/22 03:42:09;;;;;;;13.75;8.55;;;;;;;21.03;90.16;100626.69;31558764;28;20059;-86
2023/09/22 03:57:12;;;;;;;16.63;9.63;;;;;;;20.96;90.51;100636.13;31515884;28;20056;-81
2023/09/22 04:12:14;;;;;;;14.38;8.90;;;;;;;21.34;91.37;100643.53;31469086;28;20059;-83
2023/09/22 04:27:16;;;;;;;15.48;8.18;;;;;;;21.42;91.42;100641.91;31518041;28;20482;-89
2023/09/22 04:42:18;;;;;;;18.60;8.05;;;;;;;21.97;89.44;100649.41;31528720;28;20063;-87
2023/09/22 04:57:20;;;;;;;12.70;8.05;;;;;;;22.66;85.31;100669.06;31530078;28;20048;-89
2023/09/22 05:12:22;;;;;;;15.52;8.48;;;;;;;23.34;81.59;100671.94;31501914;28;20040;-88
2023/09/22 05:27:25;;;;;;;18.42;9.07;;;;;;;23.93;79.92;100687.94;31552004;28;20076;-88
2023/09/22 05:42:28;;;;;;;17.85;9.15;;;;;;;24.89;76.88;100708.44;31493453;28;20048;-88
2023/09/22 05:57:30;;;;;;;15.87;9.10;;;;;;;25.95;73.36;100709.16;31496642;28;20102;-87
2023/09/22 06:12:32;;;;;;;16.50;7.93;;;;;;;27.36;68.04;100727.38;31479153;28;20076;-81
2023/09/22 06:27:34;;;;;;;17.02;6.53;;;;;;;28.61;62.74;100740.19;31464397;28;20052;-82
2023/09/22 06:42:45;;;;;;;13.40;6.03;;;;;;;29.46;58.40;100743.28;31477387;28;20068;-81
2023/09/22 06:57:47;;;;;;;11.63;5.25;;;;;;;30.32;56.54;100739.09;31475702;28;20060;-80
2023/09/22 07:12:49;;;;;;;12.93;5.72;;;;;;;31.53;53.39;100748.03;31517842;28;20133;-83
2023/09/22 07:27:53;;;;;;;14.90;6.03;;;;;;;32.36;51.01;100753.41;31489397;28;20053;-85
2023/09/22 07:42:56;;;;;;;15.73;7.45;;;;;;;32.80;50.30;100756.22;31515629;28;20040;-85
2023/09/22 07:57:58;;;;;;;17.75;6.40;;;;;;;33.67;48.63;100746.72;31486258;28;20059;-84
2023/09/22 08:13:03;;;;;;;10.65;5.28;;;;;;;34.81;46.47;100730.16;31469714;28;20057;-80
2023/09/22 08:28:12;;;;;;;20.75;8.30;;;;;;;35.01;44.52;100721.94;31485599;28;20045;-76
2023/09/22 08:43:15;;;;;;;6.72;4.68;;;;;;;35.55;43.11;100712.47;31468510;28;20094;-77
2023/09/22 08:58:18;;;;;;;11.57;4.68;;;;;;;36.07;41.93;100691.97;31456851;28;20056;-81
2023/09/22 09:13:26;;;;;;;9.48;4.75;;;;;;;36.50;41.22;100687.63;31468090;28;20136;-77
2023/09/22 09:28:30;;;;;;;11.10;4.97;;;;;;;36.38;41.21;100675.38;31480346;28;20095;-84
2023/09/22 09:43:33;;;;;;;8.82;4.43;;;;;;;36.56;40.49;100668.31;31481002;28;20040;-80
2023/09/22 09:58:37;;;;;;;5.38;3.33;;;;;;;35.61;40.39;100655.75;31492380;28;20098;-79
2023/09/22 10:13:39;;;;;;;8.43;3.35;;;;;;;36.56;39.09;100657.00;31501307;28;20044;-77
2023/09/22 10:28:41;;;;;;;8.63;3.78;;;;;;;36.74;39.21;100644.31;31505992;28;20048;-78
2023/09/22 10:43:57;;;;;;;11.00;4.88;;;;;;;36.85;38.23;100637.34;31515581;28;20080;-81
2023/09/22 10:58:59;;;;;;;6.28;3.40;;;;;;;35.73;38.89;100639.78;31477796;28;20101;-79
2023/09/22 11:14:01;;;;;;;9.05;3.83;;;;;;;36.28;37.85;100635.75;31499128;28;20040;-81
2023/09/22 11:29:04;;;;;;;7.10;3.58;;;;;;;35.78;39.25;100624.69;31491974;28;20061;-78
2023/09/22 11:44:13;;;;;;;9.07;3.33;;;;;;;34.81;39.05;100625.09;31474914;28;20482;-78
2023/09/22 11:59:19;;;;;;;8.65;4.88;;;;;;;33.97;38.52;100636.09;31521540;28;20521;-79
2023/09/22 12:14:23;;;;;;;12.05;4.57;;;;;;;33.27;40.14;100623.53;31478073;28;20454;-82
2023/09/22 12:29:31;;;;;;;5.28;4.28;;;;;;;32.77;40.32;100620.34;31518141;28;20619;-85
2023/09/22 12:44:33;;;;;;;7.55;3.67;;;;;;;32.97;41.24;100612.28;31506174;28;20066;-81
2023/09/22 12:59:35;;;;;;;6.95;4.00;;;;;;;32.93;41.38;100603.47;31489207;28;20079;-77
2023/09/22 13:14:37;;;;;;;4.05;3.10;;;;;;;32.59;41.74;100596.16;31464781;28;20139;-76
2023/09/22 13:29:40;;;;;;;4.43;2.90;;;;;;;32.09;42.10;100595.66;31468253;28;20091;-75
2023/09/22 13:44:42;;;;;;;6.80;5.00;;;;;;;32.08;42.05;100611.00;31457067;28;20044;-74
2023/09/22 13:59:44;;;;;;;6.47;2.80;;;;;;;32.10;42.03;100619.63;31465237;28;20140;-81
2023/09/22 14:14:48;;;;;;;7.05;2.40;;;;;;;31.82;42.29;100611.28;31472537;28;20562;-77
2023/09/22 14:29:50;;;;;;;9.07;3.30;;;;;;;31.69;43.06;100591.75;31464696;28;20417;-81
2023/09/22 14:44:53;;;;;;;5.53;2.05;;;;;;;31.33;43.37;100605.75;31488459;28;20082;-79
2023/09/22 14:59:56;;;;;;;4.70;2.30;;;;;;;30.96;44.26;100592.94;31470078;28;20131;-81
2023/09/22 15:15:00;;;;;;;4.32;2.42;;;;;;;30.62;44.57;100602.22;31453514;28;20485;-76
2023/09/22 15:30:04;;;;;;;5.93;2.70;;;;;;;30.26;45.59;100615.25;31499178;28;20506;-78
2023/09/22 15:45:06;;;;;;;7.03;3.35;;;;;;;30.03;46.02;100621.34;31499504;28;20207;-79
2023/09/22 16:00:09;;;;;;;5.82;3.30;;;;;;;29.63;46.22;100634.63;31502298;28;20053;-83
2023/09/22 16:15:11;;;;;;;12.27;3.45;;;;;;;29.27;47.23;100647.50;31481813;28;20049;-82
2023/09/22 16:30:13;;;;;;;7.93;3.37;;;;;;;28.90;48.54;100659.56;31483418;28;20147;-81
2023/09/22 16:45:15;;;;;;;9.60;3.67;;;;;;;28.61;49.55;100667.59;31479903;28;20285;-82
2023/09/22 17:00:17;;;;;;;4.93;3.23;;;;;;;28.39;50.53;100668.66;31472912;28;20487;-81
2023/09/22 17:15:21;;;;;;;7.57;3.50;;;;;;;28.16;51.26;100679.34;31497690;28;20044;-81
2023/09/22 17:30:25;;;;;;;10.10;3.60;;;;;;;28.02;52.31;100686.13;31477603;28;20104;-81
2023/09/22 17:45:27;;;;;;;6.90;3.60;;;;;;;27.79;53.03;100680.06;31515736;28;20048;-82
2023/09/22 18:00:29;;;;;;;7.30;3.73;;;;;;;27.36;54.26;100677.19;31484217;28;20320;-83
2023/09/22 18:15:34;;;;;;;6.50;4.13;;;;;;;27.01;55.43;100691.16;31489701;28;20127;-82
2023/09/22 18:30:37;;;;;;;20.13;8.30;;;;;;;26.91;56.92;100692.75;31492798;28;20418;-84
2023/09/22 18:45:39;;;;;;;8.27;4.83;;;;;;;26.68;58.19;100678.97;31499029;28;20418;-81
2023/09/22 19:00:42;;;;;;;6.00;4.23;;;;;;;26.37;59.12;100690.56;31506483;28;20110;-82
2023/09/22 19:15:44;;;;;;;13.43;4.63;;;;;;;26.34;60.20;100692.34;31512852;28;20040;-79
2023/09/22 19:30:46;;;;;;;10.25;5.13;;;;;;;26.29;60.73;100693.09;31488661;28;20114;-82
2023/09/22 19:45:48;;;;;;;8.20;5.37;;;;;;;26.37;61.91;100687.78;31503563;28;20060;-80
2023/09/22 20:00:51;;;;;;;10.03;4.73;;;;;;;26.22;62.34;100690.09;31492706;28;20045;-82
2023/09/22 20:15:55;;;;;;;14.20;5.33;;;;;;;26.00;63.77;100685.34;31519850;28;20064;-85
2023/09/22 20:31:01;;;;;;;20.17;10.23;;;;;;;25.88;64.97;100681.88;31510616;28;20079;-81
2023/09/22 20:46:06;;;;;;;11.20;5.60;;;;;;;25.86;65.31;100681.63;31492987;28;20059;-81
2023/09/22 21:01:12;;;;;;;13.48;5.60;;;;;;;25.92;64.77;100674.03;31520315;28;20406;-81
2023/09/22 21:16:15;;;;;;;14.05;6.82;;;;;;;25.75;65.08;100670.53;31459895;28;20056;-79
2023/09/22 21:31:17;;;;;;;13.77;6.80;;;;;;;25.47;65.74;100678.91;31486659;28;20395;-79
2023/09/22 21:46:19;;;;;;;11.88;6.50;;;;;;;25.48;64.55;100675.63;31462799;28;20055;-79
2023/09/22 22:01:21;;;;;;;11.98;6.82;;;;;;;25.27;63.65;100676.41;31479014;28;20040;-80
2023/09/22 22:16:24;;;;;;;9.40;5.83;;;;;;;24.87;64.00;100688.75;31465130;28;20050;-78
2023/09/22 22:31:26;;;;;;;9.57;5.40;;;;;;;24.56;65.23;100676.59;31487532;28;20498;-80
2023/09/22 22:46:29;;;;;;;11.07;6.15;;;;;;;24.29;65.91;100675.25;31498826;28;20078;-79
2023/09/22 23:01:34;;;;;;;10.87;5.00;;;;;;;24.14;66.53;100674.66;31505450;28;20098;-78
2023/09/22 23:16:37;;;;;;;14.55;4.97;;;;;;;24.01;66.85;100672.34;31503806;28;20051;-79
2023/09/22 23:31:40;;;;;;;9.73;4.80;;;;;;;24.02;66.25;100665.56;31491853;28;20501;-80
2023/09/22 23:46:43;;;;;;;9.90;4.17;;;;;;;23.72;64.73;100667.91;31492172;28;20056;-78
